sensor_id;sensor_type;location;lat;lon;timestamp;P1;durP1;ratioP1;P2;durP2;ratioP2
7843;SDS011;3967;48.702;9.326;2023-04-25T00:01:29;1.63;;;1.53;;
7843;SDS011;3967;48.702;9.326;2023-04-25T00:03:56;1.83;;;1.70;;
7843;SDS011;3967;48.702;9.326;2023-04-25T00:06:23;1.80;;;1.50;;
7843;SDS011;3967;48.702;9.326;2023-04-25T00:08:52;1.97;;;1.70;;
7843;SDS011;3967;48.702;9.326;2023-04-25T00:11:20;1.97;;;1.77;;
7843;SDS011;3967;48.702;9.326;2023-04-25T00:13:46;3.80;;;1.77;;
7843;SDS011;3967;48.702;9.326;2023-04-25T00:16:16;2.10;;;1.90;;
7843;SDS011;3967;48.702;9.326;2023-04-25T00:18:43;2.37;;;1.80;;
7843;SDS011;3967;48.702;9.326;2023-04-25T00:21:12;2.20;;;1.70;;
7843;SDS011;3967;48.702;9.326;2023-04-25T00:23:38;1.67;;;1.50;;
7843;SDS011;3967;48.702;9.326;2023-04-25T00:26:05;2.57;;;1.50;;
7843;SDS011;3967;48.702;9.326;2023-04-25T00:28:32;1.73;;;1.63;;
7843;SDS011;3967;48.702;9.326;2023-04-25T00:30:59;1.60;;;1.50;;
7843;SDS011;3967;48.702;9.326;2023-04-25T00:33:25;2.57;;;1.57;;
7843;SDS011;3967;48.702;9.326;2023-04-25T00:35:52;2.00;;;1.80;;
7843;SDS011;3967;48.702;9.326;2023-04-25T00:38:19;1.90;;;1.80;;
7843;SDS011;3967;48.702;9.326;2023-04-25T00:40:46;3.27;;;2.07;;
7843;SDS011;3967;48.702;9.326;2023-04-25T00:43:12;2.10;;;2.00;;
7843;SDS011;3967;48.702;9.326;2023-04-25T00:45:39;2.10;;;1.90;;
7843;SDS011;3967;48.702;9.326;2023-04-25T00:48:06;2.20;;;2.00;;
7843;SDS011;3967;48.702;9.326;2023-04-25T00:50:33;2.20;;;2.00;;
7843;SDS011;3967;48.702;9.326;2023-04-25T00:53:01;2.27;;;2.00;;
7843;SDS011;3967;48.702;9.326;2023-04-25T00:55:31;3.63;;;1.97;;
7843;SDS011;3967;48.702;9.326;2023-04-25T00:57:58;3.23;;;1.90;;
7843;SDS011;3967;48.702;9.326;2023-04-25T01:00:25;1.80;;;1.70;;
7843;SDS011;3967;48.702;9.326;2023-04-25T01:02:52;1.77;;;1.67;;
7843;SDS011;3967;48.702;9.326;2023-04-25T01:05:19;2.23;;;1.73;;
7843;SDS011;3967;48.702;9.326;2023-04-25T01:07:45;3.23;;;1.70;;
7843;SDS011;3967;48.702;9.326;2023-04-25T01:10:13;1.80;;;1.70;;
7843;SDS011;3967;48.702;9.326;2023-04-25T01:12:40;2.20;;;2.00;;
7843;SDS011;3967;48.702;9.326;2023-04-25T01:15:07;2.03;;;1.83;;
7843;SDS011;3967;48.702;9.326;2023-04-25T01:20:20;3.23;;;1.93;;
7843;SDS011;3967;48.702;9.326;2023-04-25T01:22:50;2.03;;;1.70;;
7843;SDS011;3967;48.702;9.326;2023-04-25T01:25:18;2.47;;;1.90;;
7843;SDS011;3967;48.702;9.326;2023-04-25T01:27:45;2.10;;;1.90;;
7843;SDS011;3967;48.702;9.326;2023-04-25T01:30:13;4.33;;;2.13;;
7843;SDS011;3967;48.702;9.326;2023-04-25T01:32:40;2.80;;;1.87;;
7843;SDS011;3967;48.702;9.326;2023-04-25T01:35:09;2.23;;;1.87;;
7843;SDS011;3967;48.702;9.326;2023-04-25T01:37:37;2.40;;;2.20;;
7843;SDS011;3967;48.702;9.326;2023-04-25T01:40:08;2.37;;;2.10;;
7843;SDS011;3967;48.702;9.326;2023-04-25T01:42:37;2.13;;;2.03;;
7843;SDS011;3967;48.702;9.326;2023-04-25T01:45:06;3.83;;;2.13;;
7843;SDS011;3967;48.702;9.326;2023-04-25T01:47:34;2.77;;;2.40;;
7843;SDS011;3967;48.702;9.326;2023-04-25T01:50:02;2.97;;;2.37;;
7843;SDS011;3967;48.702;9.326;2023-04-25T01:52:29;3.17;;;2.33;;
7843;SDS011;3967;48.702;9.326;2023-04-25T01:54:56;3.30;;;2.73;;
7843;SDS011;3967;48.702;9.326;2023-04-25T01:57:23;3.37;;;2.50;;
7843;SDS011;3967;48.702;9.326;2023-04-25T01:59:50;3.10;;;2.70;;
7843;SDS011;3967;48.702;9.326;2023-04-25T02:02:17;2.90;;;2.63;;
7843;SDS011;3967;48.702;9.326;2023-04-25T02:04:44;2.27;;;2.10;;
7843;SDS011;3967;48.702;9.326;2023-04-25T02:07:11;2.33;;;2.13;;
7843;SDS011;3967;48.702;9.326;2023-04-25T02:09:37;2.40;;;2.20;;
7843;SDS011;3967;48.702;9.326;2023-04-25T02:12:04;3.40;;;2.33;;
7843;SDS011;3967;48.702;9.326;2023-04-25T02:14:31;3.47;;;1.97;;
7843;SDS011;3967;48.702;9.326;2023-04-25T02:16:58;1.90;;;1.80;;
7843;SDS011;3967;48.702;9.326;2023-04-25T02:19:25;4.90;;;1.80;;
7843;SDS011;3967;48.702;9.326;2023-04-25T02:21:51;2.20;;;2.00;;
7843;SDS011;3967;48.702;9.326;2023-04-25T02:24:18;1.90;;;1.80;;
7843;SDS011;3967;48.702;9.326;2023-04-25T02:26:45;2.53;;;1.53;;
7843;SDS011;3967;48.702;9.326;2023-04-25T02:29:12;2.27;;;1.70;;
7843;SDS011;3967;48.702;9.326;2023-04-25T02:31:41;2.50;;;1.80;;
7843;SDS011;3967;48.702;9.326;2023-04-25T02:34:08;2.20;;;1.93;;
7843;SDS011;3967;48.702;9.326;2023-04-25T02:36:35;1.73;;;1.63;;
7843;SDS011;3967;48.702;9.326;2023-04-25T02:39:01;2.07;;;1.60;;
7843;SDS011;3967;48.702;9.326;2023-04-25T02:41:29;1.60;;;1.50;;
7843;SDS011;3967;48.702;9.326;2023-04-25T02:43:55;2.87;;;2.00;;
7843;SDS011;3967;48.702;9.326;2023-04-25T02:46:22;3.63;;;1.80;;
7843;SDS011;3967;48.702;9.326;2023-04-25T02:49:03;2.50;;;1.80;;
7843;SDS011;3967;48.702;9.326;2023-04-25T02:51:31;1.90;;;1.80;;
7843;SDS011;3967;48.702;9.326;2023-04-25T02:53:58;2.27;;;1.83;;
7843;SDS011;3967;48.702;9.326;2023-04-25T02:56:25;3.17;;;2.20;;
7843;SDS011;3967;48.702;9.326;2023-04-25T02:58:53;1.90;;;1.80;;
7843;SDS011;3967;48.702;9.326;2023-04-25T03:01:19;2.10;;;1.77;;
7843;SDS011;3967;48.702;9.326;2023-04-25T03:03:46;1.90;;;1.60;;
7843;SDS011;3967;48.702;9.326;2023-04-25T03:06:13;1.90;;;1.80;;
7843;SDS011;3967;48.702;9.326;2023-04-25T03:08:41;2.33;;;1.70;;
7843;SDS011;3967;48.702;9.326;2023-04-25T03:11:08;2.90;;;1.80;;
7843;SDS011;3967;48.702;9.326;2023-04-25T03:13:36;2.67;;;2.20;;
7843;SDS011;3967;48.702;9.326;2023-04-25T03:16:03;2.57;;;2.30;;
7843;SDS011;3967;48.702;9.326;2023-04-25T03:18:30;2.30;;;2.10;;
7843;SDS011;3967;48.702;9.326;2023-04-25T03:20:56;3.43;;;2.10;;
7843;SDS011;3967;48.702;9.326;2023-04-25T03:23:23;2.97;;;2.00;;
7843;SDS011;3967;48.702;9.326;2023-04-25T03:25:50;5.00;;;2.17;;
7843;SDS011;3967;48.702;9.326;2023-04-25T03:28:16;2.27;;;2.07;;
7843;SDS011;3967;48.702;9.326;2023-04-25T03:30:44;2.40;;;1.93;;
7843;SDS011;3967;48.702;9.326;2023-04-25T03:33:10;2.20;;;1.77;;
7843;SDS011;3967;48.702;9.326;2023-04-25T03:35:37;2.87;;;1.73;;
7843;SDS011;3967;48.702;9.326;2023-04-25T03:38:04;1.90;;;1.80;;
7843;SDS011;3967;48.702;9.326;2023-04-25T03:40:30;3.67;;;2.07;;
7843;SDS011;3967;48.702;9.326;2023-04-25T03:42:57;1.90;;;1.80;;
7843;SDS011;3967;48.702;9.326;2023-04-25T03:45:24;3.20;;;1.70;;
7843;SDS011;3967;48.702;9.326;2023-04-25T03:47:51;3.37;;;2.40;;
7843;SDS011;3967;48.702;9.326;2023-04-25T03:50:18;2.60;;;2.40;;
7843;SDS011;3967;48.702;9.326;2023-04-25T03:52:44;2.63;;;2.43;;
7843;SDS011;3967;48.702;9.326;2023-04-25T03:55:11;2.27;;;2.07;;
7843;SDS011;3967;48.702;9.326;2023-04-25T03:57:37;2.30;;;2.10;;
7843;SDS011;3967;48.702;9.326;2023-04-25T04:00:04;2.53;;;1.63;;
7843;SDS011;3967;48.702;9.326;2023-04-25T04:02:32;3.87;;;2.10;;
7843;SDS011;3967;48.702;9.326;2023-04-25T04:05:01;2.57;;;1.87;;
7843;SDS011;3967;48.702;9.326;2023-04-25T04:07:29;2.27;;;2.00;;
7843;SDS011;3967;48.702;9.326;2023-04-25T04:09:56;3.27;;;2.20;;
7843;SDS011;3967;48.702;9.326;2023-04-25T04:12:22;2.07;;;1.77;;
7843;SDS011;3967;48.702;9.326;2023-04-25T04:14:51;3.93;;;2.23;;
7843;SDS011;3967;48.702;9.326;2023-04-25T04:17:18;2.83;;;2.23;;
7843;SDS011;3967;48.702;9.326;2023-04-25T04:19:45;2.27;;;2.07;;
7843;SDS011;3967;48.702;9.326;2023-04-25T04:22:11;3.57;;;2.13;;
7843;SDS011;3967;48.702;9.326;2023-04-25T04:24:38;2.37;;;1.97;;
7843;SDS011;3967;48.702;9.326;2023-04-25T04:27:05;2.23;;;2.10;;
7843;SDS011;3967;48.702;9.326;2023-04-25T04:29:32;2.80;;;2.10;;
7843;SDS011;3967;48.702;9.326;2023-04-25T04:31:58;2.70;;;2.50;;
7843;SDS011;3967;48.702;9.326;2023-04-25T04:34:27;2.13;;;1.93;;
7843;SDS011;3967;48.702;9.326;2023-04-25T04:36:53;2.67;;;2.37;;
7843;SDS011;3967;48.702;9.326;2023-04-25T04:39:21;3.63;;;2.30;;
7843;SDS011;3967;48.702;9.326;2023-04-25T04:41:48;5.00;;;2.50;;
7843;SDS011;3967;48.702;9.326;2023-04-25T04:44:15;3.70;;;2.43;;
7843;SDS011;3967;48.702;9.326;2023-04-25T04:46:41;2.93;;;2.60;;
7843;SDS011;3967;48.702;9.326;2023-04-25T04:49:09;2.57;;;2.30;;
7843;SDS011;3967;48.702;9.326;2023-04-25T04:51:37;5.67;;;3.03;;
7843;SDS011;3967;48.702;9.326;2023-04-25T04:54:04;7.00;;;2.87;;
7843;SDS011;3967;48.702;9.326;2023-04-25T04:56:31;5.97;;;2.97;;
7843;SDS011;3967;48.702;9.326;2023-04-25T04:58:58;3.00;;;2.33;;
7843;SDS011;3967;48.702;9.326;2023-04-25T05:01:25;2.60;;;2.40;;
7843;SDS011;3967;48.702;9.326;2023-04-25T05:03:52;2.90;;;2.50;;
7843;SDS011;3967;48.702;9.326;2023-04-25T05:06:20;4.33;;;2.40;;
7843;SDS011;3967;48.702;9.326;2023-04-25T05:08:47;3.93;;;2.30;;
7843;SDS011;3967;48.702;9.326;2023-04-25T05:11:14;3.50;;;2.30;;
7843;SDS011;3967;48.702;9.326;2023-04-25T05:13:40;4.90;;;2.40;;
7843;SDS011;3967;48.702;9.326;2023-04-25T05:16:07;3.63;;;2.77;;
7843;SDS011;3967;48.702;9.326;2023-04-25T05:18:34;6.40;;;2.97;;
7843;SDS011;3967;48.702;9.326;2023-04-25T05:21:01;2.90;;;2.70;;
7843;SDS011;3967;48.702;9.326;2023-04-25T05:23:27;3.03;;;2.67;;
7843;SDS011;3967;48.702;9.326;2023-04-25T05:25:58;4.27;;;2.70;;
7843;SDS011;3967;48.702;9.326;2023-04-25T05:28:25;6.30;;;3.10;;
7843;SDS011;3967;48.702;9.326;2023-04-25T05:30:52;3.63;;;3.23;;
7843;SDS011;3967;48.702;9.326;2023-04-25T05:33:19;2.80;;;2.60;;
7843;SDS011;3967;48.702;9.326;2023-04-25T05:35:46;4.17;;;2.67;;
7843;SDS011;3967;48.702;9.326;2023-04-25T05:38:13;4.80;;;2.67;;
7843;SDS011;3967;48.702;9.326;2023-04-25T05:40:39;3.20;;;2.43;;
7843;SDS011;3967;48.702;9.326;2023-04-25T05:43:06;3.27;;;2.20;;
7843;SDS011;3967;48.702;9.326;2023-04-25T05:45:33;3.57;;;2.47;;
7843;SDS011;3967;48.702;9.326;2023-04-25T05:48:00;5.47;;;2.87;;
7843;SDS011;3967;48.702;9.326;2023-04-25T05:50:27;4.10;;;2.10;;
7843;SDS011;3967;48.702;9.326;2023-04-25T05:52:53;4.07;;;2.43;;
7843;SDS011;3967;48.702;9.326;2023-04-25T05:55:20;5.40;;;2.60;;
7843;SDS011;3967;48.702;9.326;2023-04-25T05:57:47;3.60;;;2.27;;
7843;SDS011;3967;48.702;9.326;2023-04-25T06:00:16;5.97;;;2.40;;
7843;SDS011;3967;48.702;9.326;2023-04-25T06:02:44;4.80;;;2.57;;
7843;SDS011;3967;48.702;9.326;2023-04-25T06:05:11;2.83;;;2.23;;
7843;SDS011;3967;48.702;9.326;2023-04-25T06:07:39;3.73;;;2.50;;
7843;SDS011;3967;48.702;9.326;2023-04-25T06:10:06;5.27;;;3.97;;
7843;SDS011;3967;48.702;9.326;2023-04-25T06:12:33;7.97;;;3.00;;
7843;SDS011;3967;48.702;9.326;2023-04-25T06:15:00;3.50;;;2.53;;
7843;SDS011;3967;48.702;9.326;2023-04-25T06:17:27;2.63;;;2.40;;
7843;SDS011;3967;48.702;9.326;2023-04-25T06:19:54;4.13;;;2.60;;
7843;SDS011;3967;48.702;9.326;2023-04-25T06:22:21;4.57;;;2.80;;
7843;SDS011;3967;48.702;9.326;2023-04-25T06:24:47;3.70;;;2.80;;
7843;SDS011;3967;48.702;9.326;2023-04-25T06:27:14;5.70;;;3.23;;
7843;SDS011;3967;48.702;9.326;2023-04-25T06:29:42;3.27;;;2.90;;
7843;SDS011;3967;48.702;9.326;2023-04-25T06:32:09;3.70;;;2.80;;
7843;SDS011;3967;48.702;9.326;2023-04-25T06:34:35;4.73;;;2.70;;
7843;SDS011;3967;48.702;9.326;2023-04-25T06:37:02;4.93;;;2.70;;
7843;SDS011;3967;48.702;9.326;2023-04-25T06:39:29;4.63;;;2.30;;
7843;SDS011;3967;48.702;9.326;2023-04-25T06:41:56;4.03;;;2.70;;
7843;SDS011;3967;48.702;9.326;2023-04-25T06:44:22;2.83;;;2.60;;
7843;SDS011;3967;48.702;9.326;2023-04-25T06:46:50;4.97;;;2.70;;
7843;SDS011;3967;48.702;9.326;2023-04-25T06:49:17;3.20;;;2.90;;
7843;SDS011;3967;48.702;9.326;2023-04-25T06:51:43;2.50;;;2.20;;
7843;SDS011;3967;48.702;9.326;2023-04-25T06:54:10;3.73;;;2.43;;
7843;SDS011;3967;48.702;9.326;2023-04-25T06:56:37;2.77;;;2.30;;
7843;SDS011;3967;48.702;9.326;2023-04-25T06:59:03;2.63;;;2.43;;
7843;SDS011;3967;48.702;9.326;2023-04-25T07:01:30;2.17;;;1.97;;
7843;SDS011;3967;48.702;9.326;2023-04-25T07:03:57;2.67;;;2.47;;
7843;SDS011;3967;48.702;9.326;2023-04-25T07:06:24;3.17;;;2.20;;
7843;SDS011;3967;48.702;9.326;2023-04-25T07:08:53;4.97;;;2.40;;
7843;SDS011;3967;48.702;9.326;2023-04-25T07:11:22;2.60;;;2.40;;
7843;SDS011;3967;48.702;9.326;2023-04-25T07:13:49;2.67;;;2.30;;
7843;SDS011;3967;48.702;9.326;2023-04-25T07:16:16;2.80;;;2.40;;
7843;SDS011;3967;48.702;9.326;2023-04-25T07:21:19;3.83;;;2.37;;
7843;SDS011;3967;48.702;9.326;2023-04-25T07:23:46;2.50;;;2.00;;
7843;SDS011;3967;48.702;9.326;2023-04-25T07:26:12;2.90;;;2.67;;
7843;SDS011;3967;48.702;9.326;2023-04-25T07:28:39;2.10;;;2.00;;
7843;SDS011;3967;48.702;9.326;2023-04-25T07:31:06;2.40;;;2.20;;
7843;SDS011;3967;48.702;9.326;2023-04-25T07:33:33;2.57;;;2.20;;
7843;SDS011;3967;48.702;9.326;2023-04-25T07:36:00;6.00;;;2.47;;
7843;SDS011;3967;48.702;9.326;2023-04-25T07:38:26;2.70;;;2.50;;
7843;SDS011;3967;48.702;9.326;2023-04-25T07:40:53;2.40;;;2.20;;
7843;SDS011;3967;48.702;9.326;2023-04-25T07:43:20;2.00;;;1.90;;
7843;SDS011;3967;48.702;9.326;2023-04-25T07:45:48;2.57;;;2.00;;
7843;SDS011;3967;48.702;9.326;2023-04-25T07:48:16;2.30;;;2.10;;
7843;SDS011;3967;48.702;9.326;2023-04-25T07:50:44;2.10;;;1.90;;
7843;SDS011;3967;48.702;9.326;2023-04-25T07:53:11;4.10;;;2.30;;
7843;SDS011;3967;48.702;9.326;2023-04-25T07:55:40;2.40;;;2.20;;
7843;SDS011;3967;48.702;9.326;2023-04-25T07:58:07;2.77;;;2.50;;
7843;SDS011;3967;48.702;9.326;2023-04-25T08:00:34;2.53;;;2.33;;
7843;SDS011;3967;48.702;9.326;2023-04-25T08:03:01;2.93;;;2.73;;
7843;SDS011;3967;48.702;9.326;2023-04-25T08:05:29;3.07;;;2.77;;
7843;SDS011;3967;48.702;9.326;2023-04-25T08:07:56;2.93;;;2.73;;
7843;SDS011;3967;48.702;9.326;2023-04-25T08:10:23;2.60;;;2.40;;
7843;SDS011;3967;48.702;9.326;2023-04-25T08:12:49;2.80;;;2.60;;
7843;SDS011;3967;48.702;9.326;2023-04-25T08:15:16;2.67;;;2.47;;
7843;SDS011;3967;48.702;9.326;2023-04-25T08:17:43;3.07;;;2.70;;
7843;SDS011;3967;48.702;9.326;2023-04-25T08:20:11;2.97;;;2.73;;
7843;SDS011;3967;48.702;9.326;2023-04-25T08:22:38;3.30;;;3.00;;
7843;SDS011;3967;48.702;9.326;2023-04-25T08:25:05;3.80;;;3.40;;
7843;SDS011;3967;48.702;9.326;2023-04-25T08:27:32;3.60;;;3.40;;
7843;SDS011;3967;48.702;9.326;2023-04-25T08:30:01;4.17;;;3.77;;
7843;SDS011;3967;48.702;9.326;2023-04-25T08:32:29;4.57;;;3.83;;
7843;SDS011;3967;48.702;9.326;2023-04-25T08:34:56;4.63;;;3.87;;
7843;SDS011;3967;48.702;9.326;2023-04-25T08:37:23;6.47;;;3.97;;
7843;SDS011;3967;48.702;9.326;2023-04-25T08:39:49;4.50;;;4.10;;
7843;SDS011;3967;48.702;9.326;2023-04-25T08:42:18;4.97;;;4.47;;
7843;SDS011;3967;48.702;9.326;2023-04-25T08:44:48;5.00;;;4.50;;
7843;SDS011;3967;48.702;9.326;2023-04-25T08:47:15;4.70;;;4.20;;
7843;SDS011;3967;48.702;9.326;2023-04-25T08:49:44;5.73;;;5.00;;
7843;SDS011;3967;48.702;9.326;2023-04-25T08:52:12;5.40;;;4.90;;
7843;SDS011;3967;48.702;9.326;2023-04-25T08:54:43;4.57;;;4.17;;
7843;SDS011;3967;48.702;9.326;2023-04-25T08:57:14;6.10;;;4.90;;
7843;SDS011;3967;48.702;9.326;2023-04-25T08:59:41;7.30;;;4.93;;
7843;SDS011;3967;48.702;9.326;2023-04-25T09:02:12;5.60;;;5.00;;
7843;SDS011;3967;48.702;9.326;2023-04-25T09:04:43;6.90;;;5.20;;
7843;SDS011;3967;48.702;9.326;2023-04-25T09:07:10;5.10;;;4.43;;
7843;SDS011;3967;48.702;9.326;2023-04-25T09:09:38;6.40;;;4.90;;
7843;SDS011;3967;48.702;9.326;2023-04-25T09:12:05;7.57;;;5.17;;
7843;SDS011;3967;48.702;9.326;2023-04-25T09:14:32;7.80;;;5.17;;
7843;SDS011;3967;48.702;9.326;2023-04-25T09:16:59;5.40;;;4.90;;
7843;SDS011;3967;48.702;9.326;2023-04-25T09:22:07;6.87;;;6.17;;
7843;SDS011;3967;48.702;9.326;2023-04-25T09:24:36;6.60;;;5.73;;
7843;SDS011;3967;48.702;9.326;2023-04-25T09:27:17;6.60;;;5.97;;
7843;SDS011;3967;48.702;9.326;2023-04-25T09:29:46;6.57;;;6.00;;
7843;SDS011;3967;48.702;9.326;2023-04-25T09:32:19;6.10;;;5.43;;
7843;SDS011;3967;48.702;9.326;2023-04-25T09:34:48;7.03;;;5.70;;
7843;SDS011;3967;48.702;9.326;2023-04-25T09:37:17;6.73;;;5.57;;
7843;SDS011;3967;48.702;9.326;2023-04-25T09:39:49;6.53;;;5.77;;
7843;SDS011;3967;48.702;9.326;2023-04-25T09:42:24;6.50;;;5.80;;
7843;SDS011;3967;48.702;9.326;2023-04-25T09:44:53;7.60;;;5.70;;
7843;SDS011;3967;48.702;9.326;2023-04-25T09:47:22;7.63;;;5.30;;
7843;SDS011;3967;48.702;9.326;2023-04-25T09:49:50;8.13;;;4.80;;
7843;SDS011;3967;48.702;9.326;2023-04-25T09:52:22;8.60;;;5.07;;
7843;SDS011;3967;48.702;9.326;2023-04-25T09:54:51;6.63;;;4.67;;
7843;SDS011;3967;48.702;9.326;2023-04-25T09:57:24;6.40;;;5.40;;
7843;SDS011;3967;48.702;9.326;2023-04-25T09:59:52;5.50;;;4.83;;
7843;SDS011;3967;48.702;9.326;2023-04-25T10:02:24;5.40;;;4.90;;
7843;SDS011;3967;48.702;9.326;2023-04-25T10:04:53;5.67;;;4.87;;
7843;SDS011;3967;48.702;9.326;2023-04-25T10:07:22;5.60;;;5.10;;
7843;SDS011;3967;48.702;9.326;2023-04-25T10:09:55;5.37;;;4.87;;
7843;SDS011;3967;48.702;9.326;2023-04-25T10:12:26;5.73;;;4.70;;
7843;SDS011;3967;48.702;9.326;2023-04-25T10:14:54;5.60;;;5.00;;
7843;SDS011;3967;48.702;9.326;2023-04-25T10:17:21;6.47;;;5.07;;
7843;SDS011;3967;48.702;9.326;2023-04-25T10:19:48;5.63;;;4.40;;
7843;SDS011;3967;48.702;9.326;2023-04-25T10:22:21;4.90;;;4.40;;
7843;SDS011;3967;48.702;9.326;2023-04-25T10:24:55;4.17;;;3.77;;
7843;SDS011;3967;48.702;9.326;2023-04-25T10:27:22;3.97;;;3.57;;
7843;SDS011;3967;48.702;9.326;2023-04-25T10:30:00;3.80;;;3.50;;
7843;SDS011;3967;48.702;9.326;2023-04-25T10:32:31;4.00;;;2.83;;
7843;SDS011;3967;48.702;9.326;2023-04-25T10:35:11;3.60;;;3.30;;
7843;SDS011;3967;48.702;9.326;2023-04-25T10:40:31;2.40;;;2.20;;
7843;SDS011;3967;48.702;9.326;2023-04-25T10:45:56;1.63;;;1.53;;
7843;SDS011;3967;48.702;9.326;2023-04-25T10:48:25;2.00;;;1.90;;
7843;SDS011;3967;48.702;9.326;2023-04-25T10:53:35;2.53;;;1.53;;
7843;SDS011;3967;48.702;9.326;2023-04-25T10:56:21;1.77;;;1.67;;
7843;SDS011;3967;48.702;9.326;2023-04-25T10:58:49;1.67;;;1.57;;
7843;SDS011;3967;48.702;9.326;2023-04-25T11:01:19;1.67;;;1.57;;
7843;SDS011;3967;48.702;9.326;2023-04-25T11:03:48;1.40;;;1.30;;
7843;SDS011;3967;48.702;9.326;2023-04-25T11:06:23;2.83;;;1.10;;
7843;SDS011;3967;48.702;9.326;2023-04-25T11:09:10;1.40;;;1.30;;
7843;SDS011;3967;48.702;9.326;2023-04-25T11:11:39;1.00;;;1.00;;
7843;SDS011;3967;48.702;9.326;2023-04-25T11:14:06;1.03;;;0.93;;
7843;SDS011;3967;48.702;9.326;2023-04-25T11:16:33;1.30;;;1.20;;
7843;SDS011;3967;48.702;9.326;2023-04-25T11:19:00;0.80;;;0.80;;
7843;SDS011;3967;48.702;9.326;2023-04-25T11:21:26;1.30;;;1.20;;
7843;SDS011;3967;48.702;9.326;2023-04-25T11:23:57;1.47;;;0.90;;
7843;SDS011;3967;48.702;9.326;2023-04-25T11:26:25;0.87;;;0.87;;
7843;SDS011;3967;48.702;9.326;2023-04-25T11:28:52;1.03;;;1.00;;
7843;SDS011;3967;48.702;9.326;2023-04-25T11:31:25;3.20;;;1.37;;
7843;SDS011;3967;48.702;9.326;2023-04-25T11:33:58;2.57;;;1.47;;
7843;SDS011;3967;48.702;9.326;2023-04-25T11:36:26;3.77;;;2.87;;
7843;SDS011;3967;48.702;9.326;2023-04-25T11:38:53;2.57;;;2.33;;
7843;SDS011;3967;48.702;9.326;2023-04-25T11:41:23;2.33;;;2.13;;
7843;SDS011;3967;48.702;9.326;2023-04-25T11:43:50;2.17;;;1.97;;
7843;SDS011;3967;48.702;9.326;2023-04-25T11:46:18;1.70;;;1.60;;
7843;SDS011;3967;48.702;9.326;2023-04-25T11:48:46;1.60;;;1.50;;
7843;SDS011;3967;48.702;9.326;2023-04-25T11:51:14;0.90;;;0.90;;
7843;SDS011;3967;48.702;9.326;2023-04-25T11:53:41;1.40;;;1.30;;
7843;SDS011;3967;48.702;9.326;2023-04-25T11:56:10;1.30;;;1.20;;
7843;SDS011;3967;48.702;9.326;2023-04-25T12:01:52;1.97;;;1.20;;
7843;SDS011;3967;48.702;9.326;2023-04-25T12:04:20;1.10;;;1.10;;
7843;SDS011;3967;48.702;9.326;2023-04-25T12:06:50;2.17;;;1.00;;
7843;SDS011;3967;48.702;9.326;2023-04-25T12:09:20;1.60;;;1.10;;
7843;SDS011;3967;48.702;9.326;2023-04-25T12:11:54;1.40;;;1.30;;
7843;SDS011;3967;48.702;9.326;2023-04-25T12:14:22;1.87;;;1.67;;
7843;SDS011;3967;48.702;9.326;2023-04-25T12:16:50;3.50;;;1.60;;
7843;SDS011;3967;48.702;9.326;2023-04-25T12:19:18;1.80;;;1.50;;
7843;SDS011;3967;48.702;9.326;2023-04-25T12:21:46;1.80;;;1.70;;
7843;SDS011;3967;48.702;9.326;2023-04-25T12:24:24;2.20;;;2.00;;
7843;SDS011;3967;48.702;9.326;2023-04-25T12:27:05;2.20;;;2.03;;
7843;SDS011;3967;48.702;9.326;2023-04-25T12:29:34;2.57;;;2.37;;
7843;SDS011;3967;48.702;9.326;2023-04-25T12:32:15;2.47;;;2.27;;
7843;SDS011;3967;48.702;9.326;2023-04-25T12:34:42;2.17;;;1.93;;
7843;SDS011;3967;48.702;9.326;2023-04-25T12:37:08;2.17;;;1.93;;
7843;SDS011;3967;48.702;9.326;2023-04-25T12:39:35;2.00;;;1.90;;
7843;SDS011;3967;48.702;9.326;2023-04-25T12:42:02;2.27;;;2.07;;
7843;SDS011;3967;48.702;9.326;2023-04-25T12:44:33;2.53;;;2.27;;
7843;SDS011;3967;48.702;9.326;2023-04-25T12:47:00;2.80;;;2.57;;
7843;SDS011;3967;48.702;9.326;2023-04-25T12:49:27;2.73;;;2.50;;
7843;SDS011;3967;48.702;9.326;2023-04-25T12:51:54;2.73;;;2.10;;
7843;SDS011;3967;48.702;9.326;2023-04-25T12:54:20;2.80;;;2.60;;
7843;SDS011;3967;48.702;9.326;2023-04-25T12:56:47;3.00;;;2.70;;
7843;SDS011;3967;48.702;9.326;2023-04-25T12:59:14;5.17;;;3.83;;
7843;SDS011;3967;48.702;9.326;2023-04-25T13:01:41;3.20;;;2.90;;
7843;SDS011;3967;48.702;9.326;2023-04-25T13:04:09;4.07;;;3.53;;
7843;SDS011;3967;48.702;9.326;2023-04-25T13:06:36;4.57;;;4.00;;
7843;SDS011;3967;48.702;9.326;2023-04-25T13:09:03;5.53;;;4.20;;
7843;SDS011;3967;48.702;9.326;2023-04-25T13:11:29;5.10;;;4.60;;
7843;SDS011;3967;48.702;9.326;2023-04-25T13:13:57;6.13;;;5.00;;
7843;SDS011;3967;48.702;9.326;2023-04-25T13:16:23;5.93;;;5.37;;
7843;SDS011;3967;48.702;9.326;2023-04-25T13:18:50;5.60;;;4.90;;
7843;SDS011;3967;48.702;9.326;2023-04-25T13:21:17;4.73;;;4.33;;
7843;SDS011;3967;48.702;9.326;2023-04-25T13:23:44;5.87;;;5.07;;
7843;SDS011;3967;48.702;9.326;2023-04-25T13:26:12;5.70;;;4.87;;
7843;SDS011;3967;48.702;9.326;2023-04-25T13:28:39;6.30;;;5.70;;
7843;SDS011;3967;48.702;9.326;2023-04-25T13:31:10;5.83;;;5.03;;
7843;SDS011;3967;48.702;9.326;2023-04-25T13:33:36;6.50;;;5.83;;
7843;SDS011;3967;48.702;9.326;2023-04-25T13:36:03;6.20;;;5.60;;
7843;SDS011;3967;48.702;9.326;2023-04-25T13:38:30;5.33;;;4.77;;
7843;SDS011;3967;48.702;9.326;2023-04-25T13:40:57;4.87;;;4.30;;
7843;SDS011;3967;48.702;9.326;2023-04-25T13:43:24;4.27;;;3.70;;
7843;SDS011;3967;48.702;9.326;2023-04-25T13:45:51;6.33;;;5.27;;
7843;SDS011;3967;48.702;9.326;2023-04-25T13:48:18;9.63;;;5.17;;
7843;SDS011;3967;48.702;9.326;2023-04-25T13:50:46;5.67;;;5.07;;
7843;SDS011;3967;48.702;9.326;2023-04-25T13:53:13;6.77;;;4.53;;
7843;SDS011;3967;48.702;9.326;2023-04-25T13:55:39;5.27;;;4.83;;
7843;SDS011;3967;48.702;9.326;2023-04-25T13:58:06;5.40;;;4.53;;
7843;SDS011;3967;48.702;9.326;2023-04-25T14:00:37;6.20;;;5.47;;
7843;SDS011;3967;48.702;9.326;2023-04-25T14:03:05;6.70;;;6.00;;
7843;SDS011;3967;48.702;9.326;2023-04-25T14:05:36;6.20;;;5.57;;
7843;SDS011;3967;48.702;9.326;2023-04-25T14:08:05;7.23;;;4.90;;
7843;SDS011;3967;48.702;9.326;2023-04-25T14:10:35;5.93;;;4.90;;
7843;SDS011;3967;48.702;9.326;2023-04-25T14:13:03;5.57;;;4.63;;
7843;SDS011;3967;48.702;9.326;2023-04-25T14:15:33;5.93;;;5.33;;
7843;SDS011;3967;48.702;9.326;2023-04-25T14:18:01;5.33;;;4.70;;
7843;SDS011;3967;48.702;9.326;2023-04-25T14:20:28;7.57;;;5.27;;
7843;SDS011;3967;48.702;9.326;2023-04-25T14:22:55;6.63;;;5.23;;
7843;SDS011;3967;48.702;9.326;2023-04-25T14:25:24;5.50;;;4.80;;
7843;SDS011;3967;48.702;9.326;2023-04-25T14:27:52;7.27;;;5.37;;
7843;SDS011;3967;48.702;9.326;2023-04-25T14:30:19;6.37;;;5.60;;
7843;SDS011;3967;48.702;9.326;2023-04-25T14:32:50;7.93;;;5.23;;
7843;SDS011;3967;48.702;9.326;2023-04-25T14:35:17;6.10;;;5.50;;
7843;SDS011;3967;48.702;9.326;2023-04-25T14:37:44;6.17;;;5.50;;
7843;SDS011;3967;48.702;9.326;2023-04-25T14:40:11;6.00;;;5.30;;
7843;SDS011;3967;48.702;9.326;2023-04-25T14:42:42;7.40;;;5.60;;
7843;SDS011;3967;48.702;9.326;2023-04-25T14:45:09;5.93;;;5.43;;
7843;SDS011;3967;48.702;9.326;2023-04-25T14:47:36;6.43;;;5.07;;
7843;SDS011;3967;48.702;9.326;2023-04-25T14:50:03;5.40;;;4.90;;
7843;SDS011;3967;48.702;9.326;2023-04-25T14:52:31;5.00;;;4.47;;
7843;SDS011;3967;48.702;9.326;2023-04-25T14:54:58;7.13;;;6.20;;
7843;SDS011;3967;48.702;9.326;2023-04-25T14:57:26;7.43;;;5.40;;
7843;SDS011;3967;48.702;9.326;2023-04-25T14:59:53;6.30;;;5.53;;
7843;SDS011;3967;48.702;9.326;2023-04-25T15:02:20;6.20;;;5.60;;
7843;SDS011;3967;48.702;9.326;2023-04-25T15:04:47;6.90;;;5.30;;
7843;SDS011;3967;48.702;9.326;2023-04-25T15:07:14;6.37;;;5.60;;
7843;SDS011;3967;48.702;9.326;2023-04-25T15:09:47;6.20;;;5.30;;
7843;SDS011;3967;48.702;9.326;2023-04-25T15:12:15;7.30;;;5.17;;
7843;SDS011;3967;48.702;9.326;2023-04-25T15:14:42;7.63;;;5.37;;
7843;SDS011;3967;48.702;9.326;2023-04-25T15:17:09;5.60;;;5.00;;
7843;SDS011;3967;48.702;9.326;2023-04-25T15:19:35;7.67;;;6.43;;
7843;SDS011;3967;48.702;9.326;2023-04-25T15:22:02;5.70;;;4.80;;
7843;SDS011;3967;48.702;9.326;2023-04-25T15:24:29;4.87;;;3.90;;
7843;SDS011;3967;48.702;9.326;2023-04-25T15:26:56;4.57;;;4.13;;
7843;SDS011;3967;48.702;9.326;2023-04-25T15:29:22;5.63;;;4.07;;
7843;SDS011;3967;48.702;9.326;2023-04-25T15:31:49;6.73;;;4.00;;
7843;SDS011;3967;48.702;9.326;2023-04-25T15:34:16;4.47;;;4.00;;
7843;SDS011;3967;48.702;9.326;2023-04-25T15:36:43;4.80;;;4.40;;
7843;SDS011;3967;48.702;9.326;2023-04-25T15:39:10;11.30;;;4.13;;